Time;durP1;ratioP1;P1;durP2;ratioP2;P2;SDS_P1;SDS_P2;PMS_P1;PMS_P2;Temp;Humidity;BMP_temperature;BMP_pressure;BME280_temperature;BME280_humidity;BME280_pressure;Samples;Min_cycle;Max_cycle;Signal;HPM_P1;HPM_P2
2021/01/20 00:00:28;;;;;;;2.87;1.23;;;21.50;30.00;;;;;;5053048;28;20508;-71
2021/01/20 00:02:53;;;;;;;2.28;1.20;;;21.50;30.00;;;;;;5053122;28;20393;-70
2021/01/20 00:05:19;;;;;;;1.73;1.30;;;21.50;30.00;;;;;;5053072;28;20396;-69
2021/01/20 00:07:45;;;;;;;2.28;1.30;;;21.40;29.90;;;;;;5051403;28;20558;-72
2021/01/20 00:10:11;;;;;;;2.00;1.10;;;21.50;30.00;;;;;;5054168;28;20401;-72
2021/01/20 00:12:37;;;;;;;1.80;1.30;;;21.40;29.90;;;;;;5054281;28;20413;-72
2021/01/20 00:15:05;;;;;;;1.40;1.10;;;21.40;29.90;;;;;;5054078;28;20482;-69
2021/01/20 00:17:31;;;;;;;2.03;1.20;;;21.40;29.90;;;;;;5053695;28;20496;-72
2021/01/20 00:19:56;;;;;;;2.22;1.10;;;21.40;29.80;;;;;;5053893;28;20437;-69
2021/01/20 00:22:22;;;;;;;1.97;1.03;;;21.40;29.80;;;;;;5053845;28;20394;-72
2021/01/20 00:24:47;;;;;;;1.75;1.15;;;21.40;29.80;;;;;;5053844;28;20378;-72
2021/01/20 00:27:13;;;;;;;2.27;1.10;;;21.30;29.80;;;;;;5053858;28;20733;-69
2021/01/20 00:29:39;;;;;;;1.70;1.05;;;21.30;29.70;;;;;;5053175;28;20464;-68
2021/01/20 00:32:04;;;;;;;2.10;1.10;;;21.30;29.70;;;;;;5053688;28;20432;-72
2021/01/20 00:34:30;;;;;;;2.17;1.15;;;21.40;29.70;;;;;;5052932;28;21063;-72
2021/01/20 00:36:56;;;;;;;1.60;1.10;;;21.30;29.60;;;;;;5053438;28;20439;-72
2021/01/20 00:39:21;;;;;;;2.25;1.13;;;21.30;29.70;;;;;;5053365;28;20389;-72
2021/01/20 00:41:47;;;;;;;1.83;1.10;;;21.30;29.60;;;;;;5053284;28;20398;-72
2021/01/20 00:44:13;;;;;;;1.57;1.03;;;21.30;29.60;;;;;;5053404;28;20742;-72
2021/01/20 00:46:39;;;;;;;1.67;1.05;;;21.30;29.60;;;;;;5053287;28;20390;-72
2021/01/20 00:49:05;;;;;;;1.58;1.02;;;21.30;29.60;;;;;;5053326;28;20870;-72
2021/01/20 00:51:31;;;;;;;1.50;1.08;;;21.30;29.60;;;;;;5053078;28;20424;-72
2021/01/20 00:53:56;;;;;;;1.30;0.90;;;21.30;29.60;;;;;;5053044;28;20443;-69
2021/01/20 00:56:22;;;;;;;2.40;1.23;;;21.30;29.60;;;;;;5052021;28;20735;-72
2021/01/20 00:58:48;;;;;;;1.77;1.10;;;21.20;29.60;;;;;;5053179;28;20390;-72
2021/01/20 01:01:13;;;;;;;3.28;1.20;;;21.30;29.60;;;;;;5052968;28;20785;-72
2021/01/20 01:03:39;;;;;;;1.47;1.03;;;21.20;29.60;;;;;;5052487;28;20400;-72
2021/01/20 01:06:04;;;;;;;1.60;1.10;;;21.20;29.50;;;;;;5051866;28;20397;-72
2021/01/20 01:08:30;;;;;;;1.60;1.00;;;21.20;29.50;;;;;;5052974;28;20393;-69
2021/01/20 01:10:58;;;;;;;2.10;1.42;;;21.20;29.50;;;;;;5052883;28;20393;-67
2021/01/20 01:13:24;;;;;;;1.85;1.25;;;21.20;29.50;;;;;;5052857;28;20421;-71
2021/01/20 01:15:49;;;;;;;1.43;1.00;;;21.20;29.50;;;;;;5052395;28;20425;-67
2021/01/20 01:18:15;;;;;;;1.73;1.20;;;21.20;29.60;;;;;;5051596;28;20452;-73
2021/01/20 01:20:41;;;;;;;1.67;1.10;;;21.20;29.50;;;;;;5052659;28;20428;-71
2021/01/20 01:23:06;;;;;;;1.65;1.10;;;21.10;29.50;;;;;;5052663;28;20388;-72
2021/01/20 01:25:32;;;;;;;1.73;1.10;;;21.10;29.80;;;;;;5052448;28;20785;-72
2021/01/20 01:27:59;;;;;;;1.52;1.00;;;21.10;29.50;;;;;;5052373;28;20742;-73
2021/01/20 01:30:24;;;;;;;1.67;1.00;;;21.10;29.40;;;;;;5052616;28;20428;-72
2021/01/20 01:32:50;;;;;;;1.77;1.15;;;21.10;29.40;;;;;;5052650;28;20803;-71
2021/01/20 01:35:15;;;;;;;1.80;1.10;;;21.10;29.40;;;;;;5052428;28;20414;-72
2021/01/20 01:37:41;;;;;;;1.92;1.10;;;21.10;29.40;;;;;;5051941;28;20395;-72
2021/01/20 01:40:07;;;;;;;1.63;1.10;;;21.00;29.40;;;;;;5052300;28;20447;-72
2021/01/20 01:42:33;;;;;;;1.48;1.08;;;21.00;29.40;;;;;;5052257;28;20425;-70
2021/01/20 01:45:01;;;;;;;1.70;1.20;;;21.10;29.40;;;;;;5051696;28;21647;-69
2021/01/20 01:47:26;;;;;;;1.50;1.10;;;21.00;29.40;;;;;;5051671;28;20476;-72
2021/01/20 01:49:56;;;;;;;1.80;1.00;;;21.00;29.40;;;;;;5050517;28;20473;-72
2021/01/20 01:52:22;;;;;;;1.88;0.90;;;21.00;29.40;;;;;;5051972;28;20473;-72
2021/01/20 01:54:52;;;;;;;1.50;1.10;;;21.00;29.40;;;;;;5052131;28;20869;-72
2021/01/20 01:57:17;;;;;;;1.40;0.95;;;21.00;29.40;;;;;;5052058;28;20447;-72
2021/01/20 01:59:43;;;;;;;1.40;1.00;;;21.00;29.40;;;;;;5051506;28;20492;-72
2021/01/20 02:02:10;;;;;;;1.88;1.05;;;21.00;29.40;;;;;;5050769;28;20385;-68
2021/01/20 02:04:36;;;;;;;1.77;1.23;;;21.00;29.40;;;;;;5052056;28;20397;-73
2021/01/20 02:07:01;;;;;;;1.52;1.08;;;21.00;29.30;;;;;;5052032;28;20381;-71
2021/01/20 02:09:28;;;;;;;1.30;1.00;;;21.00;29.40;;;;;;5051855;28;20880;-72
2021/01/20 02:12:10;;;;;;;1.42;0.82;;;21.00;29.30;;;;;;5051436;28;20388;-71
2021/01/20 02:14:42;;;;;;;1.40;0.95;;;21.00;29.40;;;;;;5051833;28;20392;-72
2021/01/20 02:17:26;;;;;;;1.50;0.90;;;21.00;29.40;;;;;;5051946;28;20408;-70
2021/01/20 02:19:54;;;;;;;1.50;1.00;;;21.00;29.40;;;;;;5051528;28;20409;-72
2021/01/20 02:22:39;;;;;;;1.30;1.00;;;21.00;29.40;;;;;;5051768;28;20391;-72
2021/01/20 02:25:17;;;;;;;1.40;0.90;;;20.90;29.30;;;;;;5051690;28;20434;-72
2021/01/20 02:28:10;;;;;;;1.13;0.88;;;20.90;29.30;;;;;;5051356;28;20472;-72
2021/01/20 02:30:37;;;;;;;1.50;0.90;;;20.90;29.30;;;;;;5051608;28;20401;-71
2021/01/20 02:33:05;;;;;;;1.60;0.90;;;20.90;29.30;;;;;;5051400;28;20396;-72
2021/01/20 02:35:32;;;;;;;1.40;0.95;;;20.90;29.30;;;;;;5051509;28;20864;-72
2021/01/20 02:38:01;;;;;;;2.20;1.10;;;20.90;29.40;;;;;;5051207;28;20405;-72
2021/01/20 02:40:26;;;;;;;1.20;0.85;;;20.90;29.30;;;;;;5050092;28;20525;-72
2021/01/20 02:42:52;;;;;;;1.30;0.90;;;20.90;29.30;;;;;;5051489;28;20488;-72
2021/01/20 02:45:18;;;;;;;1.40;0.80;;;20.80;29.30;;;;;;5051408;28;20908;-69
2021/01/20 02:47:45;;;;;;;1.20;0.82;;;20.80;29.30;;;;;;5050942;28;20873;-72
2021/01/20 02:50:12;;;;;;;1.27;0.80;;;20.80;29.60;;;;;;5051290;28;20936;-69
2021/01/20 02:53:09;;;;;;;1.08;0.73;;;20.80;29.30;;;;;;5051529;28;20385;-72
2021/01/20 02:55:36;;;;;;;1.20;0.85;;;20.80;29.30;;;;;;5051111;28;20378;-71
2021/01/20 02:58:05;;;;;;;1.38;0.98;;;20.80;29.30;;;;;;5051947;28;20387;-71
2021/01/20 03:00:32;;;;;;;1.25;0.90;;;20.80;29.30;;;;;;5054052;28;20428;-71
2021/01/20 03:03:03;;;;;;;1.10;0.70;;;20.80;29.30;;;;;;5055565;28;20455;-71
2021/01/20 03:05:29;;;;;;;1.30;0.90;;;20.80;29.20;;;;;;5055319;28;20385;-71
2021/01/20 03:07:56;;;;;;;1.07;0.70;;;20.80;29.20;;;;;;5054875;28;20398;-72
2021/01/20 03:10:23;;;;;;;1.30;0.80;;;20.80;29.30;;;;;;5055319;28;20404;-71
2021/01/20 03:12:49;;;;;;;1.10;0.80;;;20.80;29.30;;;;;;5055230;28;20429;-72
2021/01/20 03:15:22;;;;;;;1.20;0.85;;;20.70;29.30;;;;;;5055073;28;20416;-71
2021/01/20 03:17:48;;;;;;;1.20;0.80;;;20.70;29.30;;;;;;5054653;28;20389;-72
2021/01/20 03:20:14;;;;;;;1.43;0.90;;;20.80;29.30;;;;;;5054937;28;20439;-72
2021/01/20 03:22:40;;;;;;;1.30;0.90;;;20.70;29.30;;;;;;5055019;28;20385;-71
2021/01/20 03:25:06;;;;;;;1.30;0.90;;;20.70;29.20;;;;;;5055159;28;20386;-72
2021/01/20 03:27:31;;;;;;;1.10;0.80;;;20.70;29.20;;;;;;5054895;28;20451;-72
2021/01/20 03:29:57;;;;;;;1.20;0.80;;;20.70;29.20;;;;;;5054389;28;20397;-71
2021/01/20 03:32:22;;;;;;;1.10;0.80;;;20.70;29.20;;;;;;5054825;28;20476;-70
2021/01/20 03:34:48;;;;;;;1.30;0.70;;;20.70;29.20;;;;;;5054711;28;20405;-71
2021/01/20 03:37:14;;;;;;;1.67;0.80;;;20.70;29.20;;;;;;5054758;28;20811;-71
2021/01/20 03:39:39;;;;;;;1.20;0.77;;;20.70;29.20;;;;;;5054381;28;20389;-71
2021/01/20 03:42:05;;;;;;;1.05;0.65;;;20.70;29.20;;;;;;5054472;28;20405;-70
2021/01/20 03:44:31;;;;;;;1.10;0.70;;;20.70;29.20;;;;;;5054673;28;20390;-70
2021/01/20 03:46:57;;;;;;;1.20;0.80;;;20.70;29.20;;;;;;5054648;28;20878;-72
2021/01/20 03:49:22;;;;;;;1.30;0.83;;;20.70;29.20;;;;;;5053277;28;20424;-71
2021/01/20 03:51:48;;;;;;;1.00;0.60;;;20.70;29.20;;;;;;5054048;28;20472;-71
2021/01/20 03:54:14;;;;;;;1.00;0.70;;;20.70;29.20;;;;;;5054414;28;20417;-71
2021/01/20 03:56:40;;;;;;;1.20;0.80;;;20.70;29.20;;;;;;5053229;28;20818;-71
2021/01/20 03:59:06;;;;;;;0.82;0.60;;;20.70;29.20;;;;;;5054479;28;20389;-69
2021/01/20 04:01:32;;;;;;;1.05;0.70;;;20.70;29.20;;;;;;5054266;28;20436;-71
2021/01/20 04:03:58;;;;;;;1.10;0.60;;;20.70;29.30;;;;;;5053794;28;20874;-65
2021/01/20 04:06:24;;;;;;;1.10;0.68;;;20.70;29.30;;;;;;5053895;28;20389;-65
2021/01/20 04:08:50;;;;;;;1.02;0.70;;;20.60;29.40;;;;;;5053951;28;20400;-71
2021/01/20 04:11:17;;;;;;;1.70;0.70;;;20.60;29.40;;;;;;5053019;28;20465;-71
2021/01/20 04:13:43;;;;;;;0.93;0.63;;;20.50;29.90;;;;;;5053561;28;20403;-68
2021/01/20 04:16:08;;;;;;;2.10;1.00;;;20.50;29.60;;;;;;5053530;28;20428;-71
2021/01/20 04:18:34;;;;;;;2.10;0.77;;;20.60;29.70;;;;;;5053169;28;20385;-73
2021/01/20 04:20:59;;;;;;;1.80;0.90;;;20.50;30.80;;;;;;5053772;28;20414;-74
2021/01/20 04:23:25;;;;;;;1.52;0.70;;;20.60;30.80;;;;;;5053853;28;20742;-74
2021/01/20 04:25:50;;;;;;;2.53;0.70;;;20.60;30.60;;;;;;5052137;28;20397;-71
2021/01/20 04:28:16;;;;;;;2.13;0.70;;;20.60;31.40;;;;;;5052912;28;20386;-71
2021/01/20 04:30:42;;;;;;;1.90;0.80;;;20.60;30.90;;;;;;5052116;28;21007;-60
2021/01/20 04:33:07;;;;;;;1.90;0.63;;;20.60;32.10;;;;;;5052721;28;20400;-71
2021/01/20 04:35:33;;;;;;;2.30;0.70;;;20.70;31.20;;;;;;5052132;28;20397;-70
2021/01/20 04:37:59;;;;;;;2.13;0.80;;;20.70;31.60;;;;;;5050621;28;20387;-72
2021/01/20 04:40:24;;;;;;;2.20;0.63;;;20.70;31.60;;;;;;5050116;28;20762;-71
2021/01/20 04:42:50;;;;;;;2.17;0.70;;;20.70;31.10;;;;;;5051284;28;20385;-71
2021/01/20 04:45:16;;;;;;;2.00;0.70;;;20.70;31.30;;;;;;5051709;28;20882;-67
2021/01/20 04:47:43;;;;;;;2.35;0.70;;;20.70;31.60;;;;;;5050189;28;20612;-69
2021/01/20 04:50:12;;;;;;;1.88;1.00;;;20.70;31.60;;;;;;5051539;28;20745;-71
2021/01/20 04:52:42;;;;;;;1.08;0.68;;;20.80;31.60;;;;;;5053148;28;20394;-71
2021/01/20 04:55:09;;;;;;;1.98;0.85;;;20.80;30.30;;;;;;5053183;28;20877;-71
2021/01/20 04:57:37;;;;;;;1.52;0.70;;;20.70;30.70;;;;;;5053329;28;20400;-70
2021/01/20 05:00:07;;;;;;;1.17;0.70;;;20.70;30.50;;;;;;5051574;28;20496;-71
2021/01/20 05:02:34;;;;;;;1.60;0.70;;;20.70;30.10;;;;;;5053228;28;20401;-71
2021/01/20 05:05:01;;;;;;;1.55;0.80;;;20.70;30.20;;;;;;5053172;28;20390;-71
2021/01/20 05:07:28;;;;;;;1.75;0.70;;;20.60;30.00;;;;;;5051814;28;20409;-73
2021/01/20 05:09:54;;;;;;;4.33;0.80;;;20.70;30.00;;;;;;5052691;28;20394;-72
2021/01/20 05:12:42;;;;;;;2.67;0.80;;;20.60;30.60;;;;;;5053022;28;20523;-72
2021/01/20 05:15:10;;;;;;;2.42;0.90;;;20.60;31.20;;;;;;5053051;28;20389;-72
2021/01/20 05:17:37;;;;;;;1.88;0.80;;;20.60;31.40;;;;;;5052990;28;20459;-70
2021/01/20 05:20:06;;;;;;;2.17;0.80;;;20.60;31.20;;;;;;5052413;28;20520;-72
2021/01/20 05:22:32;;;;;;;2.92;0.70;;;20.60;31.00;;;;;;5052795;28;20919;-71
2021/01/20 05:25:03;;;;;;;3.03;0.77;;;20.60;30.60;;;;;;5052880;28;20480;-72
2021/01/20 05:27:31;;;;;;;2.55;0.90;;;20.60;30.40;;;;;;5053007;28;20392;-72
2021/01/20 05:30:06;;;;;;;2.95;0.90;;;20.60;30.10;;;;;;5052211;28;20396;-73
2021/01/20 05:32:32;;;;;;;3.42;0.82;;;20.60;30.50;;;;;;5052625;28;20535;-62
2021/01/20 05:35:02;;;;;;;3.50;0.90;;;20.60;31.00;;;;;;5052388;28;20504;-71
2021/01/20 05:37:28;;;;;;;2.47;0.90;;;20.60;30.90;;;;;;5052783;28;20405;-72
2021/01/20 05:40:09;;;;;;;3.95;0.90;;;20.60;31.00;;;;;;5051929;28;20401;-71
2021/01/20 05:42:52;;;;;;;3.72;0.82;;;20.60;30.30;;;;;;5051937;28;20461;-70
2021/01/20 05:45:22;;;;;;;2.03;0.85;;;20.60;30.10;;;;;;5052176;28;20780;-71
2021/01/20 05:48:02;;;;;;;1.58;0.88;;;20.60;30.00;;;;;;5051869;28;20426;-71
2021/01/20 05:50:28;;;;;;;1.60;0.70;;;20.50;30.10;;;;;;5052279;28;20745;-71
2021/01/20 05:53:10;;;;;;;3.88;1.00;;;20.50;30.70;;;;;;5052287;28;20386;-71
2021/01/20 05:55:38;;;;;;;1.70;0.70;;;20.50;30.50;;;;;;5052240;28;20581;-70
2021/01/20 05:58:05;;;;;;;1.92;0.80;;;20.50;30.30;;;;;;5050273;28;20382;-71
2021/01/20 06:00:31;;;;;;;1.97;0.80;;;20.40;31.10;;;;;;5051925;28;20436;-71
2021/01/20 06:02:58;;;;;;;1.60;0.77;;;20.40;30.00;;;;;;5051895;28;20428;-71
2021/01/20 06:05:25;;;;;;;1.83;0.70;;;20.50;30.00;;;;;;5051994;28;20464;-72
2021/01/20 06:07:52;;;;;;;1.95;0.80;;;20.50;30.00;;;;;;5051625;28;20404;-68
2021/01/20 06:10:22;;;;;;;1.83;0.80;;;20.40;30.00;;;;;;5050631;28;20480;-72
2021/01/20 06:12:49;;;;;;;1.27;0.73;;;20.40;30.00;;;;;;5051791;28;20401;-71
2021/01/20 06:15:15;;;;;;;1.50;0.90;;;20.40;30.00;;;;;;5051708;28;20463;-71
2021/01/20 06:17:43;;;;;;;2.20;0.90;;;20.40;30.20;;;;;;5051817;28;20436;-71
2021/01/20 06:20:10;;;;;;;2.13;1.00;;;20.40;30.00;;;;;;5051413;28;20511;-69
2021/01/20 06:22:45;;;;;;;1.65;0.88;;;20.40;30.00;;;;;;5051615;28;20743;-72
2021/01/20 06:25:27;;;;;;;2.08;1.05;;;20.40;30.00;;;;;;5051587;28;20793;-72
2021/01/20 06:28:00;;;;;;;1.75;1.00;;;20.40;30.00;;;;;;5051116;28;20382;-71
2021/01/20 06:30:32;;;;;;;1.92;1.10;;;20.40;30.00;;;;;;5050263;28;20405;-71
2021/01/20 06:32:59;;;;;;;2.10;1.17;;;20.40;29.90;;;;;;5049958;28;20381;-71
2021/01/20 06:35:43;;;;;;;2.35;1.27;;;20.40;29.90;;;;;;5051581;28;20393;-72
2021/01/20 06:38:27;;;;;;;1.60;1.10;;;20.40;29.90;;;;;;5051332;28;20468;-70
2021/01/20 06:40:58;;;;;;;2.08;1.30;;;20.40;30.00;;;;;;5051457;28;20419;-67
2021/01/20 06:43:39;;;;;;;2.53;1.65;;;20.40;30.00;;;;;;5050107;28;20389;-71
2021/01/20 06:46:20;;;;;;;3.65;1.83;;;20.30;29.80;;;;;;5050496;28;20459;-71
2021/01/20 06:48:51;;;;;;;1.88;1.50;;;20.30;29.80;;;;;;5051488;28;20385;-71
2021/01/20 06:51:17;;;;;;;2.58;1.77;;;20.30;29.90;;;;;;5051417;28;20404;-71
2021/01/20 06:54:08;;;;;;;3.27;2.00;;;20.40;29.80;;;;;;5051390;28;20381;-71
2021/01/20 06:56:39;;;;;;;2.50;1.85;;;20.40;29.80;;;;;;5051780;28;20381;-72
2021/01/20 06:59:17;;;;;;;2.97;2.00;;;20.40;29.80;;;;;;5051176;28;20912;-69
2021/01/20 07:02:03;;;;;;;3.03;2.00;;;20.40;29.70;;;;;;5051289;28;20511;-59
2021/01/20 07:04:37;;;;;;;2.63;2.00;;;20.40;30.00;;;;;;5051090;28;20967;-63
2021/01/20 07:07:10;;;;;;;2.97;2.10;;;20.40;29.60;;;;;;5051269;28;20394;-70
2021/01/20 07:09:50;;;;;;;3.22;1.90;;;20.40;29.50;;;;;;5051272;28;20393;-72
2021/01/20 07:12:21;;;;;;;3.10;2.00;;;20.30;29.50;;;;;;5051196;28;20398;-71
2021/01/20 07:14:48;;;;;;;2.93;2.07;;;20.30;29.50;;;;;;5051180;28;20430;-72
2021/01/20 07:17:16;;;;;;;2.65;1.90;;;20.40;29.50;;;;;;5051028;28;20401;-71
2021/01/20 07:19:43;;;;;;;3.10;2.10;;;20.30;29.40;;;;;;5050946;28;20401;-59
2021/01/20 07:22:10;;;;;;;2.80;2.00;;;20.30;29.40;;;;;;5050535;28;20397;-72
2021/01/20 07:24:35;;;;;;;2.70;1.90;;;20.30;29.40;;;;;;5047981;28;20392;-58
2021/01/20 07:27:09;;;;;;;2.93;2.10;;;20.30;29.40;;;;;;5041122;28;20389;-58
2021/01/20 07:29:35;;;;;;;3.08;2.00;;;20.40;29.40;;;;;;5050683;28;20393;-58
2021/01/20 07:32:02;;;;;;;2.58;1.80;;;20.30;29.40;;;;;;5050467;28;20394;-58
2021/01/20 07:34:42;;;;;;;2.50;1.90;;;20.30;29.40;;;;;;5050561;28;20412;-58
2021/01/20 07:37:12;;;;;;;2.72;2.00;;;20.30;29.40;;;;;;5050738;28;20389;-57
2021/01/20 07:39:38;;;;;;;2.85;1.88;;;20.30;29.40;;;;;;5050630;28;20966;-58
2021/01/20 07:42:07;;;;;;;2.90;2.30;;;20.30;29.40;;;;;;5050223;28;20870;-58
2021/01/20 07:44:34;;;;;;;2.83;2.00;;;20.30;29.40;;;;;;5050849;28;20385;-58
2021/01/20 07:47:05;;;;;;;2.80;1.80;;;20.30;29.40;;;;;;5054359;28;20859;-58
2021/01/20 07:49:32;;;;;;;3.17;2.10;;;20.30;29.40;;;;;;5054491;28;20443;-58
2021/01/20 07:52:04;;;;;;;2.90;2.10;;;20.30;29.30;;;;;;5053937;28;20484;-58
2021/01/20 07:54:44;;;;;;;2.42;1.92;;;20.30;29.30;;;;;;5053080;28;20404;-58
2021/01/20 07:57:16;;;;;;;2.50;1.87;;;20.30;29.30;;;;;;5053897;28;20404;-58
2021/01/20 07:59:42;;;;;;;2.85;2.17;;;20.30;29.30;;;;;;5054261;28;20396;-58
2021/01/20 08:02:12;;;;;;;2.67;1.90;;;20.30;29.30;;;;;;5053295;28;20409;-58
2021/01/20 08:04:39;;;;;;;3.10;1.85;;;20.30;29.30;;;;;;5053668;28;20373;-58
2021/01/20 08:07:09;;;;;;;3.00;2.07;;;20.30;29.30;;;;;;5054211;28;20843;-58
2021/01/20 08:09:39;;;;;;;2.88;2.00;;;20.30;29.30;;;;;;5052757;28;20400;-58
2021/01/20 08:12:06;;;;;;;2.75;2.00;;;20.30;29.20;;;;;;5053613;28;20398;-58
2021/01/20 08:14:35;;;;;;;2.90;1.85;;;20.30;29.30;;;;;;5053965;28;20394;-60
2021/01/20 08:17:02;;;;;;;2.35;1.90;;;20.30;29.30;;;;;;5053927;28;20489;-59
2021/01/20 08:19:28;;;;;;;2.78;2.10;;;20.30;29.20;;;;;;5053939;28;20818;-61
2021/01/20 08:21:54;;;;;;;2.50;1.90;;;20.30;29.30;;;;;;5053300;28;20417;-70
2021/01/20 08:24:21;;;;;;;2.10;1.65;;;20.30;29.30;;;;;;5053796;28;20788;-66
2021/01/20 08:26:54;;;;;;;2.15;1.60;;;20.30;29.30;;;;;;5050574;28;20405;-71
2021/01/20 08:29:21;;;;;;;2.15;1.65;;;20.30;29.30;;;;;;5050909;28;20391;-64
2021/01/20 08:32:04;;;;;;;2.38;1.90;;;20.30;29.20;;;;;;5051848;28;20406;-71
2021/01/20 08:34:34;;;;;;;2.70;1.88;;;20.30;29.30;;;;;;5050590;28;20463;-62
2021/01/20 08:37:05;;;;;;;2.40;1.70;;;20.30;29.20;;;;;;5050064;28;20424;-71
2021/01/20 08:39:40;;;;;;;2.20;1.70;;;20.30;29.20;;;;;;5052451;28;20396;-69
2021/01/20 08:42:29;;;;;;;2.00;1.70;;;20.40;29.30;;;;;;5050493;28;20402;-63
2021/01/20 08:45:10;;;;;;;2.25;1.70;;;20.30;29.20;;;;;;5052229;28;20416;-71
2021/01/20 08:47:52;;;;;;;2.03;1.67;;;20.40;29.20;;;;;;5049276;28;20924;-65
2021/01/20 08:50:18;;;;;;;2.30;1.60;;;20.30;29.20;;;;;;5049396;28;20459;-70
2021/01/20 08:52:51;;;;;;;2.80;1.65;;;20.30;29.20;;;;;;5051899;28;20428;-68
2021/01/20 08:55:30;;;;;;;2.30;1.52;;;20.30;29.20;;;;;;5049478;28;20378;-71
2021/01/20 08:58:20;;;;;;;2.10;1.50;;;20.30;29.20;;;;;;5051074;28;20972;-70
2021/01/20 09:00:48;;;;;;;1.90;1.40;;;20.30;29.20;;;;;;5050196;28;21258;-71
2021/01/20 09:03:15;;;;;;;1.88;1.50;;;20.30;29.20;;;;;;5051448;28;20406;-70
2021/01/20 09:05:41;;;;;;;1.80;1.40;;;20.40;29.20;;;;;;5051439;28;20478;-70
2021/01/20 09:08:07;;;;;;;1.90;1.42;;;20.40;29.20;;;;;;5051234;28;20858;-71
2021/01/20 09:10:33;;;;;;;1.95;1.40;;;20.40;29.20;;;;;;5051423;28;20381;-69
2021/01/20 09:12:59;;;;;;;1.97;1.33;;;20.40;29.20;;;;;;5052274;28;20425;-70
2021/01/20 09:15:24;;;;;;;1.80;1.25;;;20.40;29.10;;;;;;5052881;28;20750;-71
2021/01/20 09:17:50;;;;;;;1.80;1.35;;;20.40;29.10;;;;;;5052892;28;20876;-71
2021/01/20 09:20:16;;;;;;;1.97;1.50;;;20.40;29.10;;;;;;5052411;28;20409;-65
2021/01/20 09:22:41;;;;;;;1.92;1.30;;;20.40;29.10;;;;;;5051156;28;20416;-58
2021/01/20 09:25:07;;;;;;;1.83;1.30;;;20.40;29.10;;;;;;5052559;28;20404;-69
2021/01/20 09:27:33;;;;;;;2.00;1.30;;;20.40;29.10;;;;;;5052434;28;20393;-71
2021/01/20 09:29:59;;;;;;;1.83;1.23;;;20.50;29.10;;;;;;5052094;28;20751;-71
2021/01/20 09:32:24;;;;;;;2.00;1.40;;;20.50;29.00;;;;;;5047027;28;20435;-69
2021/01/20 09:34:50;;;;;;;2.00;1.30;;;20.60;29.00;;;;;;5052041;28;20410;-70
2021/01/20 09:37:16;;;;;;;1.88;1.40;;;20.60;29.00;;;;;;5052156;28;20908;-71
2021/01/20 09:39:41;;;;;;;1.90;1.37;;;20.60;28.90;;;;;;5045677;28;20761;-71
2021/01/20 09:42:07;;;;;;;1.83;1.48;;;20.60;28.90;;;;;;5036382;28;20482;-74
2021/01/20 09:44:32;;;;;;;2.23;1.37;;;20.60;28.90;;;;;;5032388;28;20899;-73
2021/01/20 09:47:00;;;;;;;1.60;1.10;;;20.60;28.90;;;;;;5032412;28;20399;-73
2021/01/20 09:49:26;;;;;;;1.67;1.30;;;20.60;28.90;;;;;;5032347;28;20383;-73
2021/01/20 09:51:51;;;;;;;1.48;1.10;;;20.60;28.90;;;;;;5032323;28;20752;-71
2021/01/20 09:54:17;;;;;;;1.57;1.20;;;20.60;29.00;;;;;;5032113;28;20395;-71
2021/01/20 09:56:43;;;;;;;1.90;1.30;;;20.60;28.90;;;;;;5032397;28;20901;-71
2021/01/20 09:59:08;;;;;;;1.80;1.20;;;20.60;29.00;;;;;;5032211;28;20383;-70
2021/01/20 10:01:35;;;;;;;1.70;1.20;;;20.60;29.00;;;;;;5032095;28;20429;-71
2021/01/20 10:04:01;;;;;;;1.50;1.15;;;20.70;29.00;;;;;;5031569;28;20392;-71
2021/01/20 10:06:26;;;;;;;1.83;1.10;;;20.70;29.00;;;;;;5031995;28;20457;-71
2021/01/20 10:08:52;;;;;;;2.10;1.13;;;20.70;29.00;;;;;;5031297;28;20410;-72
2021/01/20 10:11:18;;;;;;;1.50;1.00;;;20.80;29.00;;;;;;5031793;28;20486;-71
2021/01/20 10:13:43;;;;;;;1.50;1.10;;;20.70;29.00;;;;;;5031990;28;20389;-70
2021/01/20 10:16:09;;;;;;;1.90;1.20;;;20.80;29.00;;;;;;5031366;28;20434;-71
2021/01/20 10:18:34;;;;;;;1.88;1.20;;;20.80;28.90;;;;;;5031984;28;20387;-72
2021/01/20 10:21:00;;;;;;;1.80;1.10;;;20.80;29.40;;;;;;5031742;28;20826;-72
2021/01/20 10:23:26;;;;;;;1.50;1.02;;;20.80;28.90;;;;;;5048807;28;20390;-72
2021/01/20 10:25:52;;;;;;;1.90;1.10;;;20.80;28.90;;;;;;5050868;28;20385;-64
2021/01/20 10:28:18;;;;;;;1.45;1.10;;;20.80;28.90;;;;;;5050481;28;20442;-71
2021/01/20 10:30:44;;;;;;;1.85;1.30;;;20.80;28.90;;;;;;5066510;28;20397;-70
2021/01/20 10:33:10;;;;;;;1.53;1.07;;;20.80;29.00;;;;;;5051288;28;20401;-72
2021/01/20 10:35:36;;;;;;;1.52;1.02;;;20.80;29.00;;;;;;5051843;28;20451;-59
2021/01/20 10:38:02;;;;;;;1.43;1.00;;;20.80;28.90;;;;;;5051012;28;20397;-59
2021/01/20 10:40:28;;;;;;;1.38;1.00;;;20.80;28.90;;;;;;5051288;28;20428;-58
2021/01/20 10:42:54;;;;;;;1.65;1.10;;;20.80;28.90;;;;;;5051408;28;20408;-72
2021/01/20 10:45:19;;;;;;;1.42;1.10;;;20.80;29.00;;;;;;5051319;28;20401;-62
2021/01/20 10:47:45;;;;;;;1.50;1.17;;;20.90;29.00;;;;;;5051367;28;20378;-61
2021/01/20 10:50:13;;;;;;;1.30;1.02;;;20.80;28.90;;;;;;5050844;28;20385;-58
2021/01/20 10:52:38;;;;;;;1.45;1.00;;;20.80;29.00;;;;;;5050445;28;20477;-72
2021/01/20 10:55:04;;;;;;;1.57;1.00;;;20.90;29.40;;;;;;5051165;28;20480;-62
2021/01/20 10:57:30;;;;;;;1.63;1.10;;;20.80;28.80;;;;;;5051241;28;20885;-66
2021/01/20 10:59:56;;;;;;;1.40;0.97;;;20.80;28.90;;;;;;5050997;28;20395;-63
2021/01/20 11:02:22;;;;;;;1.65;1.10;;;20.90;28.90;;;;;;5066370;28;20437;-63
2021/01/20 11:04:48;;;;;;;1.33;1.10;;;20.90;28.90;;;;;;5051183;28;20482;-58
2021/01/20 11:07:14;;;;;;;1.60;1.00;;;20.80;28.90;;;;;;5051078;28;20411;-59
2021/01/20 11:09:39;;;;;;;1.50;1.10;;;20.90;28.90;;;;;;5051219;28;20377;-70
2021/01/20 11:12:05;;;;;;;1.40;1.00;;;20.90;29.10;;;;;;5050652;28;20403;-71
2021/01/20 11:14:32;;;;;;;1.60;1.05;;;20.90;28.90;;;;;;5051151;28;20425;-60
2021/01/20 11:16:58;;;;;;;1.27;0.95;;;20.90;28.80;;;;;;5051118;28;20378;-61
2021/01/20 11:19:24;;;;;;;1.30;1.00;;;20.90;28.80;;;;;;5052387;28;20675;-64
2021/01/20 11:21:50;;;;;;;1.48;0.93;;;20.90;28.80;;;;;;5055274;28;20417;-68
2021/01/20 11:24:20;;;;;;;1.60;0.90;;;20.90;28.80;;;;;;5054614;28;20913;-67
2021/01/20 11:26:46;;;;;;;1.42;0.90;;;20.90;28.80;;;;;;5055272;28;20737;-70
2021/01/20 11:29:12;;;;;;;1.30;0.90;;;20.90;28.80;;;;;;5054275;28;20935;-72
2021/01/20 11:31:38;;;;;;;1.83;0.90;;;20.90;28.80;;;;;;5070041;28;20434;-70
2021/01/20 11:34:04;;;;;;;1.40;0.90;;;20.90;28.80;;;;;;5054308;28;20786;-60
2021/01/20 11:36:29;;;;;;;1.42;0.90;;;20.90;28.80;;;;;;5054957;28;20425;-70
2021/01/20 11:38:55;;;;;;;1.10;0.80;;;20.90;28.90;;;;;;5054453;28;20397;-72
2021/01/20 11:41:21;;;;;;;1.35;1.00;;;20.90;28.90;;;;;;5053893;28;20517;-59
2021/01/20 11:43:47;;;;;;;1.48;0.90;;;20.90;28.80;;;;;;5054237;28;20424;-69
2021/01/20 11:46:13;;;;;;;1.48;1.05;;;20.90;28.80;;;;;;5053809;28;20394;-70
2021/01/20 11:48:39;;;;;;;1.48;0.90;;;20.90;28.80;;;;;;5054065;28;20464;-71
2021/01/20 11:51:05;;;;;;;1.30;1.00;;;20.90;28.90;;;;;;5054044;28;20520;-69
2021/01/20 11:53:31;;;;;;;1.40;0.98;;;20.90;28.90;;;;;;5054088;28;20397;-63
2021/01/20 11:55:57;;;;;;;1.40;0.90;;;20.90;28.80;;;;;;5053780;28;20397;-70
2021/01/20 11:58:22;;;;;;;1.15;0.90;;;20.90;28.90;;;;;;5053630;28;20401;-71
2021/01/20 12:00:48;;;;;;;1.10;0.80;;;20.90;28.80;;;;;;5054334;28;20440;-71
2021/01/20 12:03:14;;;;;;;1.25;0.80;;;20.90;28.80;;;;;;5069344;28;20558;-66
2021/01/20 12:05:39;;;;;;;1.90;0.90;;;20.90;29.10;;;;;;5053292;28;20405;-70
2021/01/20 12:08:05;;;;;;;1.40;0.70;;;20.90;29.20;;;;;;5052564;28;20469;-68
2021/01/20 12:10:31;;;;;;;1.35;0.90;;;21.00;29.30;;;;;;5052988;28;20480;-71
2021/01/20 12:12:56;;;;;;;2.00;0.70;;;21.00;29.40;;;;;;5049444;28;20402;-70
2021/01/20 12:15:22;;;;;;;1.20;0.80;;;21.00;29.50;;;;;;5042980;28;20403;-71
2021/01/20 12:17:47;;;;;;;1.30;0.80;;;20.90;29.20;;;;;;5034218;28;20399;-69
2021/01/20 12:20:14;;;;;;;1.50;0.75;;;21.00;29.20;;;;;;5033504;28;20493;-70
2021/01/20 12:22:39;;;;;;;1.45;0.80;;;21.00;29.30;;;;;;5034244;28;20721;-71
2021/01/20 12:25:06;;;;;;;1.10;0.80;;;21.00;29.20;;;;;;5034041;28;20929;-71
2021/01/20 12:27:32;;;;;;;1.92;0.70;;;20.90;29.30;;;;;;5034027;28;20449;-71
2021/01/20 12:29:59;;;;;;;1.17;0.73;;;20.90;29.30;;;;;;5033932;28;20392;-70
2021/01/20 12:32:25;;;;;;;1.40;0.85;;;21.00;29.30;;;;;;5032785;28;20405;-71
2021/01/20 12:34:50;;;;;;;1.10;0.77;;;21.00;29.20;;;;;;5033735;28;20399;-70
2021/01/20 12:37:16;;;;;;;1.37;0.80;;;21.00;29.20;;;;;;5033744;28;20403;-71
2021/01/20 12:39:42;;;;;;;1.52;0.85;;;21.00;29.20;;;;;;5033740;28;20390;-71
2021/01/20 12:42:07;;;;;;;1.30;0.90;;;21.00;29.10;;;;;;5033096;28;20423;-69
2021/01/20 12:44:33;;;;;;;1.60;0.80;;;21.00;29.10;;;;;;5033726;28;20396;-71
2021/01/20 12:46:58;;;;;;;1.20;0.90;;;21.00;29.10;;;;;;5033716;28;20989;-71
2021/01/20 12:49:24;;;;;;;1.30;0.85;;;21.00;29.10;;;;;;5033637;28;20391;-72
2021/01/20 12:51:50;;;;;;;1.67;0.90;;;21.00;29.10;;;;;;5033838;28;20399;-70